Time;durP1;ratioP1;P1;durP2;ratioP2;P2;SDS_P1;SDS_P2;PMS_P1;PMS_P2;Temp;Humidity;BMP_temperature;BMP_pressure;BME280_temperature;BME280_humidity;BME280_pressure;Samples;Min_cycle;Max_cycle;Signal;HPM_P1;HPM_P2
2021/03/20 00:01:33;;;;;;;;;;;15.60;63.40;;;;;;5019075;28;19913;-72
2021/03/20 00:03:59;;;;;;;;;;;15.60;63.40;;;;;;5014961;28;19917;-72
2021/03/20 00:06:26;;;;;;;;;;;15.60;63.40;;;;;;5015855;28;19921;-72
2021/03/20 00:08:53;;;;;;;;;;;15.60;63.40;;;;;;5015258;28;20363;-72
2021/03/20 00:11:18;;;;;;;;;;;15.60;63.40;;;;;;5032964;28;19913;-73
2021/03/20 00:13:44;;;;;;;;;;;15.60;63.40;;;;;;5032599;28;20028;-72
2021/03/20 00:16:10;;;;;;;;;;;15.60;63.40;;;;;;5017906;28;20359;-72
2021/03/20 00:18:36;;;;;;;;;;;15.60;63.40;;;;;;5041717;28;20003;-72
2021/03/20 00:21:02;;;;;;;;;;;15.60;63.40;;;;;;5035334;28;19952;-74
2021/03/20 00:23:27;;;;;;;;;;;15.60;63.40;;;;;;5025353;28;19921;-72
2021/03/20 00:25:53;;;;;;;;;;;15.60;63.40;;;;;;5033982;28;19917;-72
2021/03/20 00:28:23;;;;;;;;;;;15.50;63.40;;;;;;5019340;28;19964;-72
2021/03/20 00:30:54;;;;;;;;;;;15.60;63.40;;;;;;5038384;28;20260;-72
2021/03/20 00:33:20;;;;;;;;;;;15.50;63.40;;;;;;5056217;28;19908;-72
2021/03/20 00:35:45;;;;;;;;;;;15.50;63.40;;;;;;5023695;28;19962;-72
2021/03/20 00:38:11;;;;;;;;;;;15.50;63.40;;;;;;5018591;28;19909;-72
2021/03/20 00:40:37;;;;;;;;;;;15.60;63.40;;;;;;5050985;28;20011;-72
2021/03/20 00:43:02;;;;;;;;;;;15.50;63.40;;;;;;5031103;28;19917;-73
2021/03/20 00:45:28;;;;;;;;;;;15.60;63.40;;;;;;5033942;28;19917;-72
2021/03/20 00:47:54;;;;;;;;;;;15.50;63.30;;;;;;5035786;28;20040;-74
2021/03/20 00:50:21;;;;;;;;;;;15.60;63.30;;;;;;5032719;28;19952;-72
2021/03/20 00:52:47;;;;;;;;;;;15.50;63.30;;;;;;5032237;28;19913;-72
2021/03/20 00:55:12;;;;;;;;;;;15.50;63.30;;;;;;5035493;28;19920;-73
2021/03/20 00:57:38;;;;;;;;;;;15.50;63.30;;;;;;5035982;28;19995;-72
2021/03/20 01:00:05;;;;;;;;;;;15.50;63.30;;;;;;5035847;28;19948;-73
2021/03/20 01:02:31;;;;;;;;;;;15.50;63.20;;;;;;5042709;28;19920;-72
2021/03/20 01:04:56;;;;;;;;;;;15.50;63.30;;;;;;5036214;28;19917;-72
2021/03/20 01:07:22;;;;;;;;;;;15.60;63.30;;;;;;5051189;28;20255;-73
2021/03/20 01:09:47;;;;;;;;;;;15.50;63.20;;;;;;5051150;28;19920;-73
2021/03/20 01:12:13;;;;;;;;;;;15.50;63.30;;;;;;5035558;28;19948;-72
2021/03/20 01:14:38;;;;;;;;;;;15.50;63.20;;;;;;5018374;28;20473;-72
2021/03/20 01:17:04;;;;;;;;;;;15.50;63.30;;;;;;5050431;28;19917;-73
2021/03/20 01:19:29;;;;;;;;;;;15.50;63.20;;;;;;5035323;28;19917;-72
2021/03/20 01:21:55;;;;;;;;;;;15.50;63.30;;;;;;5017855;28;20033;-72
2021/03/20 01:24:20;;;;;;;;;;;15.50;63.20;;;;;;5018362;28;19920;-72
2021/03/20 01:26:46;;;;;;;;;;;15.50;63.20;;;;;;5035470;28;19913;-72
2021/03/20 01:29:11;;;;;;;;;;;15.50;63.20;;;;;;5017880;28;20379;-73
2021/03/20 01:31:37;;;;;;;;;;;15.50;63.20;;;;;;5051600;28;20404;-73
2021/03/20 01:34:02;;;;;;;;;;;15.50;63.20;;;;;;5035429;28;19909;-73
2021/03/20 01:36:28;;;;;;;;;;;15.50;63.20;;;;;;5035283;28;20286;-72
2021/03/20 01:38:54;;;;;;;;;;;15.50;63.20;;;;;;5050489;28;20383;-72
2021/03/20 01:41:21;;;;;;;;;;;15.50;63.20;;;;;;5035318;28;19917;-72
2021/03/20 01:43:46;;;;;;;;;;;15.50;63.20;;;;;;5034757;28;19917;-73
2021/03/20 01:46:31;;;;;;;;;;;15.50;63.10;;;;;;5034111;28;19913;-73
2021/03/20 01:48:56;;;;;;;;;;;15.50;63.10;;;;;;5050491;28;19920;-72
2021/03/20 01:51:22;;;;;;;;;;;15.50;63.10;;;;;;5034587;28;19917;-73
2021/03/20 01:53:49;;;;;;;;;;;15.50;63.10;;;;;;5050389;28;19913;-74
2021/03/20 01:56:16;;;;;;;;;;;15.50;63.10;;;;;;5017347;28;19917;-73
2021/03/20 01:58:42;;;;;;;;;;;15.50;63.10;;;;;;5022738;28;20024;-74
2021/03/20 02:01:10;;;;;;;;;;;15.50;63.10;;;;;;5039679;28;19912;-73
2021/03/20 02:03:36;;;;;;;;;;;15.50;63.10;;;;;;5038170;28;19917;-72
2021/03/20 02:06:02;;;;;;;;;;;15.50;63.10;;;;;;5035050;28;19984;-73
2021/03/20 02:08:28;;;;;;;;;;;15.50;63.10;;;;;;5034729;28;19960;-72
2021/03/20 02:11:01;;;;;;;;;;;15.50;63.10;;;;;;5034556;28;19913;-73
2021/03/20 02:13:45;;;;;;;;;;;15.50;63.10;;;;;;5034894;28;19960;-72
2021/03/20 02:16:19;;;;;;;;;;;15.50;63.10;;;;;;5049782;28;19963;-72
2021/03/20 02:18:45;;;;;;;;;;;15.50;63.10;;;;;;5034434;28;19917;-72
2021/03/20 02:21:21;;;;;;;;;;;15.50;63.00;;;;;;5049993;28;19919;-72
2021/03/20 02:23:46;;;;;;;;;;;15.50;63.10;;;;;;5028443;28;19917;-73
2021/03/20 02:26:30;;;;;;;;;;;15.50;63.00;;;;;;5034308;28;19944;-72
2021/03/20 02:28:58;;;;;;;;;;;15.40;63.00;;;;;;5034302;28;20373;-72
2021/03/20 02:31:35;;;;;;;;;;;15.50;63.10;;;;;;5056624;28;19913;-72
2021/03/20 02:34:13;;;;;;;;;;;15.50;63.10;;;;;;5032052;28;20035;-73
2021/03/20 02:36:42;;;;;;;;;;;15.50;63.00;;;;;;5034229;28;19913;-72
2021/03/20 02:39:11;;;;;;;;;;;15.50;63.00;;;;;;5033720;28;19921;-72
2021/03/20 02:41:55;;;;;;;;;;;15.50;63.00;;;;;;5016439;28;19936;-72
2021/03/20 02:44:23;;;;;;;;;;;15.40;63.00;;;;;;5033571;28;19960;-73
2021/03/20 02:46:54;;;;;;;;;;;15.40;63.00;;;;;;5026120;28;20012;-72
2021/03/20 02:49:26;;;;;;;;;;;15.40;63.00;;;;;;5030897;28;19917;-72
2021/03/20 02:51:55;;;;;;;;;;;15.40;63.00;;;;;;5033639;28;19948;-72
2021/03/20 02:54:26;;;;;;;;;;;15.40;63.00;;;;;;5033634;28;20032;-72
2021/03/20 02:57:07;;;;;;;;;;;15.50;63.00;;;;;;5033528;28;20268;-73
2021/03/20 02:59:41;;;;;;;;;;;15.40;63.00;;;;;;5016745;28;19917;-73
2021/03/20 03:02:08;;;;;;;;;;;15.40;62.90;;;;;;5038792;28;19921;-74
2021/03/20 03:04:38;;;;;;;;;;;15.40;63.00;;;;;;5023866;28;19917;-73
2021/03/20 03:07:22;;;;;;;;;;;15.50;62.90;;;;;;5033443;28;20367;-73
2021/03/20 03:09:50;;;;;;;;;;;15.40;62.90;;;;;;5049045;28;20643;-73
2021/03/20 03:12:22;;;;;;;;;;;15.40;62.90;;;;;;5033181;28;20559;-72
2021/03/20 03:14:53;;;;;;;;;;;15.40;62.90;;;;;;5026685;28;20273;-72
2021/03/20 03:17:21;;;;;;;;;;;15.40;62.90;;;;;;5033453;28;19913;-72
2021/03/20 03:20:02;;;;;;;;;;;15.40;62.90;;;;;;5015775;28;20251;-72
2021/03/20 03:22:35;;;;;;;;;;;15.50;62.90;;;;;;5016152;28;19913;-72
2021/03/20 03:25:03;;;;;;;;;;;15.40;62.80;;;;;;5033286;28;19917;-72
2021/03/20 03:27:30;;;;;;;;;;;15.40;62.80;;;;;;5049791;28;19952;-72
2021/03/20 03:29:56;;;;;;;;;;;15.40;62.80;;;;;;5025693;28;19917;-72
2021/03/20 03:32:32;;;;;;;;;;;15.40;62.80;;;;;;5019728;28;19920;-72
2021/03/20 03:35:18;;;;;;;;;;;15.40;62.80;;;;;;5033401;28;19913;-72
2021/03/20 03:38:02;;;;;;;;;;;15.40;62.80;;;;;;5015836;28;19917;-72
2021/03/20 03:40:27;;;;;;;;;;;15.40;62.70;;;;;;5032916;28;19921;-72
2021/03/20 03:42:53;;;;;;;;;;;15.40;62.80;;;;;;5033086;28;20366;-72
2021/03/20 03:45:19;;;;;;;;;;;15.40;62.80;;;;;;5026690;28;19918;-73
2021/03/20 03:47:47;;;;;;;;;;;15.40;62.70;;;;;;5032915;28;19963;-72
2021/03/20 03:50:14;;;;;;;;;;;15.50;62.80;;;;;;5033233;28;20447;-72
2021/03/20 03:52:40;;;;;;;;;;;15.40;62.80;;;;;;5015621;28;19956;-72
2021/03/20 03:55:07;;;;;;;;;;;15.40;62.70;;;;;;5049546;28;19924;-72
2021/03/20 03:57:32;;;;;;;;;;;15.40;62.70;;;;;;5019442;28;20535;-72
2021/03/20 04:00:13;;;;;;;;;;;15.40;62.70;;;;;;5052586;28;19913;-72
2021/03/20 04:03:03;;;;;;;;;;;15.40;62.70;;;;;;5062505;28;19916;-72
2021/03/20 04:05:32;;;;;;;;;;;15.40;62.70;;;;;;5036780;28;20290;-72
2021/03/20 04:07:57;;;;;;;;;;;15.40;62.70;;;;;;5019742;28;20278;-72
2021/03/20 04:10:32;;;;;;;;;;;15.40;62.60;;;;;;5052378;28;19919;-72
2021/03/20 04:12:58;;;;;;;;;;;15.40;62.70;;;;;;5036580;28;19913;-72
2021/03/20 04:15:42;;;;;;;;;;;15.40;62.70;;;;;;5036823;28;20020;-72
2021/03/20 04:18:14;;;;;;;;;;;15.40;62.70;;;;;;5051807;28;19913;-72
2021/03/20 04:20:48;;;;;;;;;;;15.40;62.70;;;;;;5019343;28;19927;-72
2021/03/20 04:23:18;;;;;;;;;;;15.40;62.70;;;;;;5036321;28;19916;-73
2021/03/20 04:25:48;;;;;;;;;;;15.40;62.70;;;;;;5019046;28;19956;-72
2021/03/20 04:28:17;;;;;;;;;;;15.40;62.70;;;;;;5019124;28;19967;-72
2021/03/20 04:30:45;;;;;;;;;;;15.40;62.70;;;;;;5020352;28;20381;-72
2021/03/20 04:33:15;;;;;;;;;;;15.40;62.70;;;;;;5045295;28;19913;-72
2021/03/20 04:35:47;;;;;;;;;;;15.40;62.60;;;;;;5019366;28;19913;-72
2021/03/20 04:38:13;;;;;;;;;;;15.40;62.60;;;;;;5030321;28;19953;-72
2021/03/20 04:40:44;;;;;;;;;;;15.40;62.70;;;;;;5035919;28;19928;-72
2021/03/20 04:43:12;;;;;;;;;;;15.40;62.60;;;;;;5036183;28;20450;-72
2021/03/20 04:45:41;;;;;;;;;;;15.40;62.60;;;;;;5036282;28;19917;-73
2021/03/20 04:48:27;;;;;;;;;;;15.40;62.60;;;;;;5035999;28;20004;-72
2021/03/20 04:51:07;;;;;;;;;;;15.40;62.60;;;;;;5035070;28;20016;-72
2021/03/20 04:53:33;;;;;;;;;;;15.40;62.60;;;;;;5036020;28;19967;-72
2021/03/20 04:56:05;;;;;;;;;;;15.40;62.60;;;;;;5035897;28;19913;-72
2021/03/20 04:58:36;;;;;;;;;;;15.40;62.50;;;;;;5036032;28;19917;-72
2021/03/20 05:01:28;;;;;;;;;;;15.40;62.50;;;;;;5039585;28;19995;-73
2021/03/20 05:03:58;;;;;;;;;;;15.40;62.50;;;;;;5031854;28;19917;-73
2021/03/20 05:06:25;;;;;;;;;;;15.40;62.40;;;;;;5035839;28;19967;-72
2021/03/20 05:09:00;;;;;;;;;;;15.40;62.50;;;;;;5018669;28;19913;-72
2021/03/20 05:11:31;;;;;;;;;;;15.40;62.40;;;;;;5035812;28;20283;-72
2021/03/20 05:14:05;;;;;;;;;;;15.40;62.40;;;;;;5035760;28;19936;-72
2021/03/20 05:16:40;;;;;;;;;;;15.40;62.40;;;;;;5018739;28;19959;-72
2021/03/20 05:19:06;;;;;;;;;;;15.40;62.40;;;;;;5050413;28;19913;-72
2021/03/20 05:21:33;;;;;;;;;;;15.40;62.40;;;;;;5020740;28;19913;-73
2021/03/20 05:24:00;;;;;;;;;;;15.40;62.40;;;;;;5017838;28;20001;-72
2021/03/20 05:26:28;;;;;;;;;;;15.40;62.40;;;;;;5035269;28;20417;-73
2021/03/20 05:28:53;;;;;;;;;;;15.40;62.40;;;;;;5035433;28;19920;-72
2021/03/20 05:31:19;;;;;;;;;;;15.40;62.40;;;;;;5041653;28;19912;-73
2021/03/20 05:33:46;;;;;;;;;;;15.40;62.30;;;;;;5033438;28;20011;-72
2021/03/20 05:36:12;;;;;;;;;;;15.40;62.30;;;;;;5042245;28;19928;-72
2021/03/20 05:38:38;;;;;;;;;;;15.40;62.30;;;;;;5034755;28;19917;-72
2021/03/20 05:41:07;;;;;;;;;;;15.40;62.20;;;;;;5018155;28;19963;-73
2021/03/20 05:43:33;;;;;;;;;;;15.50;62.20;;;;;;5035171;28;19960;-72
2021/03/20 05:46:12;;;;;;;;;;;15.40;62.20;;;;;;5035176;28;19959;-72
2021/03/20 05:48:40;;;;;;;;;;;15.40;62.20;;;;;;5017621;28;19974;-72
2021/03/20 05:51:06;;;;;;;;;;;15.50;62.20;;;;;;5034822;28;19963;-72
2021/03/20 05:53:34;;;;;;;;;;;15.40;62.20;;;;;;5034890;28;19960;-73
2021/03/20 05:56:30;;;;;;;;;;;15.40;62.20;;;;;;5034917;28;20278;-72
2021/03/20 05:59:13;;;;;;;;;;;15.40;62.20;;;;;;5021977;28;19967;-72
2021/03/20 06:01:57;;;;;;;;;;;15.40;62.20;;;;;;5017533;28;19913;-72
2021/03/20 06:04:23;;;;;;;;;;;15.50;62.20;;;;;;5049829;28;19939;-73
2021/03/20 06:07:03;;;;;;;;;;;15.40;62.20;;;;;;5034738;28;20422;-72
2021/03/20 06:09:44;;;;;;;;;;;15.40;62.10;;;;;;5034740;28;19913;-72
2021/03/20 06:12:28;;;;;;;;;;;15.40;62.10;;;;;;5049859;28;19952;-72
2021/03/20 06:15:10;;;;;;;;;;;15.40;62.10;;;;;;5034369;28;20371;-72
2021/03/20 06:17:59;;;;;;;;;;;15.50;62.10;;;;;;5025073;28;20435;-72
2021/03/20 06:20:43;;;;;;;;;;;15.40;62.00;;;;;;5026371;28;19924;-72
2021/03/20 06:23:27;;;;;;;;;;;15.40;62.10;;;;;;5034378;28;19917;-72
2021/03/20 06:25:57;;;;;;;;;;;15.50;62.00;;;;;;5049708;28;19917;-72
2021/03/20 06:28:26;;;;;;;;;;;15.50;61.90;;;;;;5017493;28;19913;-72
2021/03/20 06:30:55;;;;;;;;;;;15.50;61.90;;;;;;5016697;28;20363;-71
2021/03/20 06:33:41;;;;;;;;;;;15.50;61.80;;;;;;5016815;28;19921;-72
2021/03/20 06:36:09;;;;;;;;;;;15.50;61.80;;;;;;5033577;28;19913;-72
2021/03/20 06:38:56;;;;;;;;;;;15.50;61.80;;;;;;5019290;28;20062;-72
2021/03/20 06:41:28;;;;;;;;;;;15.60;61.80;;;;;;5034092;28;20393;-73
2021/03/20 06:44:00;;;;;;;;;;;15.50;61.70;;;;;;5049249;28;19917;-73
2021/03/20 06:46:28;;;;;;;;;;;15.50;61.60;;;;;;5018617;28;19917;-73
2021/03/20 06:48:54;;;;;;;;;;;15.60;61.60;;;;;;5031437;28;20052;-72
2021/03/20 06:51:19;;;;;;;;;;;15.60;61.60;;;;;;5049573;28;20004;-72
2021/03/20 06:53:59;;;;;;;;;;;15.60;61.50;;;;;;5033642;28;20295;-72
2021/03/20 06:56:26;;;;;;;;;;;15.60;61.50;;;;;;5033498;28;19913;-73
2021/03/20 06:58:51;;;;;;;;;;;15.60;61.40;;;;;;5023461;28;19936;-73
2021/03/20 07:01:24;;;;;;;;;;;15.70;61.40;;;;;;5022511;28;20354;-73
2021/03/20 07:03:59;;;;;;;;;;;15.70;61.30;;;;;;5036814;28;19917;-72
2021/03/20 07:06:31;;;;;;;;;;;15.70;61.30;;;;;;5049049;28;19916;-73
2021/03/20 07:08:58;;;;;;;;;;;15.70;61.30;;;;;;5033788;28;19920;-72
2021/03/20 07:11:27;;;;;;;;;;;15.70;61.30;;;;;;5021324;28;19913;-73
2021/03/20 07:13:55;;;;;;;;;;;15.70;61.30;;;;;;5033620;28;20351;-72
2021/03/20 07:16:23;;;;;;;;;;;15.70;61.30;;;;;;5015935;28;19909;-75
2021/03/20 07:18:51;;;;;;;;;;;15.70;61.20;;;;;;5033038;28;19917;-74
2021/03/20 07:21:29;;;;;;;;;;;15.70;61.20;;;;;;5048979;28;20413;-75
2021/03/20 07:24:02;;;;;;;;;;;15.70;61.10;;;;;;5033563;28;20030;-74
2021/03/20 07:26:30;;;;;;;;;;;15.70;61.10;;;;;;5033478;28;20278;-73
2021/03/20 07:28:57;;;;;;;;;;;15.70;61.00;;;;;;5016537;28;19921;-73
2021/03/20 07:31:23;;;;;;;;;;;15.80;60.90;;;;;;5018649;28;20405;-74
2021/03/20 07:33:49;;;;;;;;;;;15.80;60.70;;;;;;5015889;28;19913;-73
2021/03/20 07:36:21;;;;;;;;;;;15.80;60.80;;;;;;5035925;28;20258;-74
2021/03/20 07:39:02;;;;;;;;;;;15.80;60.80;;;;;;5033944;28;19956;-77
2021/03/20 07:41:28;;;;;;;;;;;15.70;60.90;;;;;;5015492;28;19999;-73
2021/03/20 07:43:58;;;;;;;;;;;15.70;61.00;;;;;;5015478;28;20023;-74
2021/03/20 07:46:24;;;;;;;;;;;15.70;61.00;;;;;;5016313;28;20011;-73
2021/03/20 07:48:57;;;;;;;;;;;15.80;60.80;;;;;;5032546;28;19913;-76
2021/03/20 07:51:23;;;;;;;;;;;15.80;60.70;;;;;;5016013;28;20008;-73
2021/03/20 07:53:50;;;;;;;;;;;15.80;60.70;;;;;;5048435;28;19909;-74
2021/03/20 07:56:36;;;;;;;;;;;15.80;60.60;;;;;;5033055;28;19924;-73
2021/03/20 07:59:21;;;;;;;;;;;15.80;60.50;;;;;;5033253;28;19913;-74
2021/03/20 08:01:52;;;;;;;;;;;15.80;60.50;;;;;;5031116;28;19948;-74
2021/03/20 08:04:17;;;;;;;;;;;15.80;60.50;;;;;;5034250;28;19933;-74
2021/03/20 08:06:45;;;;;;;;;;;15.80;60.50;;;;;;5020503;28;19947;-75
2021/03/20 08:09:17;;;;;;;;;;;15.80;60.50;;;;;;5032877;28;19909;-73
2021/03/20 08:11:43;;;;;;;;;;;15.80;60.60;;;;;;5033165;28;20263;-74
2021/03/20 08:14:29;;;;;;;;;;;15.80;60.60;;;;;;5042082;28;19914;-73
2021/03/20 08:17:00;;;;;;;;;;;15.80;60.60;;;;;;5031996;28;19924;-74
2021/03/20 08:19:25;;;;;;;;;;;15.80;60.60;;;;;;5048028;28;19917;-74
2021/03/20 08:21:59;;;;;;;;;;;15.80;60.60;;;;;;5029873;28;19963;-74
2021/03/20 08:24:27;;;;;;;;;;;15.80;60.50;;;;;;5020319;28;19928;-74
2021/03/20 08:27:08;;;;;;;;;;;15.80;60.40;;;;;;5033070;28;19925;-72
2021/03/20 08:29:42;;;;;;;;;;;15.80;60.40;;;;;;5032579;28;20000;-72
2021/03/20 08:32:26;;;;;;;;;;;15.80;60.40;;;;;;5042476;28;19964;-71
2021/03/20 08:35:03;;;;;;;;;;;15.80;60.50;;;;;;5047858;28;19917;-72
2021/03/20 08:37:28;;;;;;;;;;;15.80;60.50;;;;;;5015573;28;19919;-72
2021/03/20 08:40:04;;;;;;;;;;;15.80;60.60;;;;;;5044651;28;19922;-72
2021/03/20 08:42:29;;;;;;;;;;;15.80;60.60;;;;;;5031439;28;19924;-72
2021/03/20 08:45:13;;;;;;;;;;;15.80;60.60;;;;;;5015618;28;20283;-72
2021/03/20 08:47:54;;;;;;;;;;;15.80;60.60;;;;;;5015574;28;20315;-72
2021/03/20 08:50:38;;;;;;;;;;;15.80;60.50;;;;;;5015609;28;19928;-72
2021/03/20 08:53:09;;;;;;;;;;;15.90;60.40;;;;;;5015267;28;20429;-73
2021/03/20 08:55:41;;;;;;;;;;;15.90;60.30;;;;;;5016320;28;20038;-73
2021/03/20 08:58:25;;;;;;;;;;;15.90;60.20;;;;;;5016289;28;19920;-73
2021/03/20 09:00:54;;;;;;;;;;;15.90;60.20;;;;;;5018826;28;19914;-72
2021/03/20 09:03:23;;;;;;;;;;;15.90;60.10;;;;;;5030703;28;19918;-72
2021/03/20 09:05:54;;;;;;;;;;;16.00;60.10;;;;;;5015736;28;19918;-73
2021/03/20 09:08:23;;;;;;;;;;;16.00;60.00;;;;;;5016183;28;19913;-72
2021/03/20 09:11:01;;;;;;;;;;;16.10;59.90;;;;;;5016123;28;19920;-72
2021/03/20 09:13:29;;;;;;;;;;;16.10;59.80;;;;;;5015741;28;20000;-73
2021/03/20 09:15:58;;;;;;;;;;;16.10;59.70;;;;;;5047551;28;19917;-73
2021/03/20 09:18:24;;;;;;;;;;;16.10;59.70;;;;;;5024935;28;19918;-72
2021/03/20 09:20:52;;;;;;;;;;;16.10;59.70;;;;;;5015894;28;19919;-72
2021/03/20 09:23:21;;;;;;;;;;;16.10;59.80;;;;;;5014395;28;19918;-73
2021/03/20 09:25:51;;;;;;;;;;;16.10;59.80;;;;;;5014750;28;19932;-73
2021/03/20 09:28:28;;;;;;;;;;;16.00;60.00;;;;;;5014410;28;20359;-73
2021/03/20 09:30:57;;;;;;;;;;;16.00;60.10;;;;;;5018524;28;20003;-72
2021/03/20 09:33:25;;;;;;;;;;;15.90;60.10;;;;;;5026625;28;19914;-72
2021/03/20 09:35:56;;;;;;;;;;;15.90;60.20;;;;;;5032737;28;20044;-72
2021/03/20 09:38:37;;;;;;;;;;;15.90;60.20;;;;;;5031390;28;19914;-73
2021/03/20 09:41:29;;;;;;;;;;;15.90;60.20;;;;;;5015474;28;19921;-72
2021/03/20 09:43:54;;;;;;;;;;;15.90;60.20;;;;;;5010948;28;19929;-73
2021/03/20 09:46:38;;;;;;;;;;;15.90;60.10;;;;;;5047335;28;20024;-73
2021/03/20 09:49:03;;;;;;;;;;;16.00;60.00;;;;;;5046740;28;20311;-73
2021/03/20 09:51:48;;;;;;;;;;;16.00;60.00;;;;;;5015332;28;20012;-72
2021/03/20 09:54:26;;;;;;;;;;;16.00;59.90;;;;;;5046092;28;20378;-73
2021/03/20 09:56:55;;;;;;;;;;;16.00;59.80;;;;;;5015227;28;19910;-72
2021/03/20 09:59:27;;;;;;;;;;;16.00;59.80;;;;;;5014384;28;20367;-73
2021/03/20 10:01:52;;;;;;;;;;;16.10;59.80;;;;;;5014809;28;19920;-72
2021/03/20 10:04:25;;;;;;;;;;;16.10;59.70;;;;;;5013918;28;19921;-73
2021/03/20 10:07:10;;;;;;;;;;;16.10;59.60;;;;;;5014106;28;20343;-73
2021/03/20 10:09:50;;;;;;;;;;;16.10;59.60;;;;;;5014388;28;19967;-73
2021/03/20 10:12:18;;;;;;;;;;;16.20;59.40;;;;;;5017063;28;19917;-73
2021/03/20 10:14:51;;;;;;;;;;;16.10;59.40;;;;;;5046391;28;19917;-72
2021/03/20 10:17:18;;;;;;;;;;;16.10;59.50;;;;;;5013415;28;19914;-73
2021/03/20 10:20:03;;;;;;;;;;;16.10;59.50;;;;;;5014648;28;19964;-72
2021/03/20 10:22:30;;;;;;;;;;;16.20;59.40;;;;;;5030368;28;19947;-72
2021/03/20 10:24:56;;;;;;;;;;;16.20;59.40;;;;;;5014550;28;19921;-73
2021/03/20 10:27:42;;;;;;;;;;;16.20;59.30;;;;;;5013968;28;19917;-73
2021/03/20 10:30:12;;;;;;;;;;;16.10;59.30;;;;;;5014008;28;19913;-73
2021/03/20 10:32:37;;;;;;;;;;;16.10;59.40;;;;;;5018203;28;20039;-72
2021/03/20 10:35:05;;;;;;;;;;;16.10;59.40;;;;;;5014251;28;20012;-72
2021/03/20 10:37:33;;;;;;;;;;;16.10;59.50;;;;;;5014536;28;19922;-73
2021/03/20 10:40:07;;;;;;;;;;;16.10;59.50;;;;;;5012718;28;19922;-73
2021/03/20 10:42:35;;;;;;;;;;;16.10;59.50;;;;;;5013981;28;20015;-73
2021/03/20 10:45:06;;;;;;;;;;;16.20;59.30;;;;;;5014222;28;20389;-73
2021/03/20 10:47:33;;;;;;;;;;;16.30;59.20;;;;;;5014295;28;19971;-73
2021/03/20 10:50:05;;;;;;;;;;;16.30;59.10;;;;;;5013873;28;20383;-73
2021/03/20 10:52:33;;;;;;;;;;;16.30;59.10;;;;;;5033896;28;19917;-72
2021/03/20 10:55:01;;;;;;;;;;;16.20;59.10;;;;;;5028450;28;20371;-72
2021/03/20 10:57:28;;;;;;;;;;;16.20;59.30;;;;;;5014368;28;20412;-73
2021/03/20 10:59:54;;;;;;;;;;;16.10;59.40;;;;;;5013556;28;20283;-73
2021/03/20 11:02:30;;;;;;;;;;;16.10;59.50;;;;;;5014884;28;19918;-73
2021/03/20 11:05:10;;;;;;;;;;;16.10;59.70;;;;;;5012583;28;20023;-73
2021/03/20 11:07:44;;;;;;;;;;;16.00;59.80;;;;;;5013858;28;19924;-73
2021/03/20 11:10:10;;;;;;;;;;;16.00;59.80;;;;;;5013735;28;19964;-73
2021/03/20 11:12:35;;;;;;;;;;;16.00;59.80;;;;;;5013288;28;19917;-73
2021/03/20 11:15:02;;;;;;;;;;;16.00;59.80;;;;;;5013560;28;19944;-74
2021/03/20 11:17:32;;;;;;;;;;;16.00;59.80;;;;;;5012954;28;19920;-73
2021/03/20 11:20:06;;;;;;;;;;;16.00;59.80;;;;;;5012676;28;19920;-72
2021/03/20 11:22:31;;;;;;;;;;;16.00;59.80;;;;;;5013112;28;19920;-73
2021/03/20 11:24:58;;;;;;;;;;;16.00;59.80;;;;;;5012910;28;19917;-72
2021/03/20 11:27:28;;;;;;;;;;;16.00;59.80;;;;;;5013444;28;19917;-73
2021/03/20 11:29:58;;;;;;;;;;;16.00;59.70;;;;;;5012856;28;19917;-72
2021/03/20 11:32:26;;;;;;;;;;;16.10;59.60;;;;;;5023227;28;19914;-73
2021/03/20 11:35:11;;;;;;;;;;;16.10;59.50;;;;;;5013373;28;19910;-73
2021/03/20 11:37:36;;;;;;;;;;;16.10;59.50;;;;;;5015833;28;20072;-73
2021/03/20 11:40:04;;;;;;;;;;;16.00;59.60;;;;;;5029533;28;20028;-73
2021/03/20 11:42:38;;;;;;;;;;;16.00;59.60;;;;;;5013437;28;20477;-73
2021/03/20 11:45:15;;;;;;;;;;;16.00;59.70;;;;;;5011920;28;19922;-73
2021/03/20 11:47:46;;;;;;;;;;;15.90;59.80;;;;;;5023207;28;19917;-74
2021/03/20 11:50:17;;;;;;;;;;;15.90;59.90;;;;;;5013688;28;19963;-73
2021/03/20 11:52:45;;;;;;;;;;;15.90;60.00;;;;;;5012887;28;20363;-73
2021/03/20 11:55:22;;;;;;;;;;;15.90;60.00;;;;;;5019711;28;20385;-73
2021/03/20 11:57:49;;;;;;;;;;;15.90;60.00;;;;;;5027630;28;19913;-73
2021/03/20 12:00:32;;;;;;;;;;;15.90;59.90;;;;;;5012665;28;19922;-73
2021/03/20 12:02:58;;;;;;;;;;;15.90;59.80;;;;;;5024090;28;20381;-73
2021/03/20 12:05:28;;;;;;;;;;;15.90;59.80;;;;;;5044898;28;19917;-73
2021/03/20 12:08:12;;;;;;;;;;;15.90;59.80;;;;;;5013161;28;20004;-73
2021/03/20 12:10:52;;;;;;;;;;;16.00;59.80;;;;;;5012486;28;19920;-73
2021/03/20 12:13:36;;;;;;;;;;;16.00;59.70;;;;;;5045538;28;19964;-73
2021/03/20 12:16:01;;;;;;;;;;;16.00;59.60;;;;;;5013701;28;20330;-73
2021/03/20 12:18:27;;;;;;;;;;;16.00;59.50;;;;;;5015489;28;19922;-73
2021/03/20 12:21:01;;;;;;;;;;;16.00;59.50;;;;;;5015734;28;19917;-73
2021/03/20 12:23:32;;;;;;;;;;;16.10;59.50;;;;;;5017004;28;19963;-73
2021/03/20 12:26:17;;;;;;;;;;;16.00;59.50;;;;;;5030258;28;19922;-73
2021/03/20 12:28:44;;;;;;;;;;;16.10;59.40;;;;;;5015978;28;19914;-73
2021/03/20 12:31:13;;;;;;;;;;;16.10;59.30;;;;;;5020977;28;20005;-73
2021/03/20 12:34:02;;;;;;;;;;;16.10;59.20;;;;;;5031023;28;19913;-73
2021/03/20 12:36:44;;;;;;;;;;;16.10;59.20;;;;;;5018317;28;19913;-73
2021/03/20 12:39:14;;;;;;;;;;;16.10;59.20;;;;;;5015318;28;20433;-73
2021/03/20 12:41:40;;;;;;;;;;;16.10;59.10;;;;;;5023201;28;19913;-73
2021/03/20 12:44:20;;;;;;;;;;;16.10;59.10;;;;;;5019941;28;19922;-73
2021/03/20 12:46:47;;;;;;;;;;;16.10;59.10;;;;;;5016238;28;19921;-73
2021/03/20 12:49:16;;;;;;;;;;;16.10;59.00;;;;;;5016254;28;19919;-73
2021/03/20 12:51:47;;;;;;;;;;;16.20;59.00;;;;;;5016456;28;20004;-73
2021/03/20 12:54:23;;;;;;;;;;;16.20;59.00;;;;;;5016302;28;20339;-73
2021/03/20 12:56:54;;;;;;;;;;;16.10;59.00;;;;;;5016522;28;19913;-73
2021/03/20 12:59:19;;;;;;;;;;;16.20;58.90;;;;;;5016597;28;19920;-73
2021/03/20 13:01:46;;;;;;;;;;;16.20;58.80;;;;;;5021894;28;19917;-72
2021/03/20 13:04:16;;;;;;;;;;;16.20;58.80;;;;;;5014505;28;20268;-72
2021/03/20 13:06:42;;;;;;;;;;;16.20;58.70;;;;;;5015322;28;19921;-72
2021/03/20 13:09:12;;;;;;;;;;;16.20;58.70;;;;;;5016160;28;19921;-72
2021/03/20 13:11:38;;;;;;;;;;;16.20;58.60;;;;;;5031100;28;19913;-73
2021/03/20 13:14:04;;;;;;;;;;;16.30;58.50;;;;;;5020523;28;19914;-72
2021/03/20 13:16:36;;;;;;;;;;;16.30;58.60;;;;;;5015795;28;19914;-73
2021/03/20 13:19:02;;;;;;;;;;;16.30;58.50;;;;;;5015024;28;19914;-74
2021/03/20 13:21:28;;;;;;;;;;;16.30;58.40;;;;;;5014967;28;19920;-72
2021/03/20 13:23:53;;;;;;;;;;;16.30;58.40;;;;;;5014461;28;19917;-72
2021/03/20 13:26:19;;;;;;;;;;;16.30;58.40;;;;;;5015397;28;19972;-73
2021/03/20 13:28:49;;;;;;;;;;;16.30;58.50;;;;;;5015755;28;19960;-72
2021/03/20 13:31:15;;;;;;;;;;;16.20;58.70;;;;;;5030456;28;19919;-72
2021/03/20 13:33:41;;;;;;;;;;;16.20;58.90;;;;;;5015167;28;19917;-72
2021/03/20 13:36:10;;;;;;;;;;;16.10;59.00;;;;;;5014677;28;19921;-72
2021/03/20 13:38:36;;;;;;;;;;;16.20;59.00;;;;;;5014571;28;20320;-72
2021/03/20 13:41:02;;;;;;;;;;;16.10;59.10;;;;;;5034740;28;20290;-74
2021/03/20 13:43:27;;;;;;;;;;;16.10;59.10;;;;;;5034905;28;19932;-72
2021/03/20 13:45:53;;;;;;;;;;;16.10;59.10;;;;;;5035253;28;19920;-73
2021/03/20 13:48:19;;;;;;;;;;;16.10;59.10;;;;;;5017444;28;19913;-72
2021/03/20 13:50:45;;;;;;;;;;;16.20;59.00;;;;;;5034599;28;19913;-73
2021/03/20 13:53:12;;;;;;;;;;;16.20;59.00;;;;;;5034849;28;19913;-72
2021/03/20 13:55:37;;;;;;;;;;;16.20;58.90;;;;;;5017236;28;20003;-72
2021/03/20 13:58:03;;;;;;;;;;;16.10;58.90;;;;;;5035380;28;20051;-73
2021/03/20 14:00:28;;;;;;;;;;;16.20;58.90;;;;;;5049912;28;19913;-72
2021/03/20 14:02:54;;;;;;;;;;;16.20;58.80;;;;;;5028889;28;19913;-72
2021/03/20 14:05:20;;;;;;;;;;;16.20;58.80;;;;;;5034478;28;19924;-72
2021/03/20 14:07:49;;;;;;;;;;;16.20;58.90;;;;;;5034504;28;19940;-73
2021/03/20 14:10:14;;;;;;;;;;;16.20;58.90;;;;;;5034735;28;20004;-72
2021/03/20 14:12:40;;;;;;;;;;;16.10;58.90;;;;;;5050201;28;19959;-72
2021/03/20 14:15:09;;;;;;;;;;;16.10;58.90;;;;;;5030827;28;20028;-73
2021/03/20 14:17:34;;;;;;;;;;;16.10;58.90;;;;;;5045657;28;19921;-73
2021/03/20 14:20:00;;;;;;;;;;;16.10;58.90;;;;;;5033804;28;20275;-72
2021/03/20 14:22:26;;;;;;;;;;;16.20;59.00;;;;;;5034468;28;19913;-72
2021/03/20 14:24:51;;;;;;;;;;;16.10;59.00;;;;;;5034448;28;19913;-72
2021/03/20 14:27:17;;;;;;;;;;;16.20;59.00;;;;;;5034138;28;19917;-73
2021/03/20 14:29:43;;;;;;;;;;;16.10;59.10;;;;;;5034351;28;19945;-72
2021/03/20 14:32:08;;;;;;;;;;;16.10;59.10;;;;;;5057148;28;19913;-72
2021/03/20 14:34:34;;;;;;;;;;;16.10;59.10;;;;;;5033985;28;19913;-72
2021/03/20 14:37:00;;;;;;;;;;;16.10;59.20;;;;;;5034129;28;19944;-72